Time;durP1;ratioP1;P1;durP2;ratioP2;P2;SDS_P1;SDS_P2;PMS_P1;PMS_P2;Temp;Humidity;BMP_temperature;BMP_pressure;BME280_temperature;BME280_humidity;BME280_pressure;Samples;Min_cycle;Max_cycle;Signal;HPM_P1;HPM_P2
2021/05/02 06:00:08;;;;;;;21.00;15.23;;;;;;;9.57;79.68;99372.21;1775504;77;26737;31
2021/05/02 06:02:35;;;;;;;22.73;16.15;;;;;;;9.58;79.68;99365.71;1800000;79;25550;-57
2021/05/02 06:05:04;;;;;;;22.10;15.23;;;;;;;9.59;79.65;99354.59;1800104;79;25582;-56
2021/05/02 06:07:31;;;;;;;18.07;14.60;;;;;;;9.60;79.69;99345.92;1800398;79;25596;-56
2021/05/02 06:09:58;;;;;;;21.12;14.73;;;;;;;9.61;79.66;99336.72;1800196;79;25899;-56
2021/05/02 06:12:25;;;;;;;18.67;14.35;;;;;;;9.63;79.63;99337.18;1799659;79;25571;-56
2021/05/02 06:14:52;;;;;;;18.57;14.53;;;;;;;9.63;79.52;99332.56;1800154;79;25599;-56
2021/05/02 06:17:19;;;;;;;19.02;14.47;;;;;;;9.65;79.50;99328.19;1800055;79;25607;-56
2021/05/02 06:19:45;;;;;;;21.57;16.10;;;;;;;9.66;79.43;99320.33;1800112;79;25537;-56
2021/05/02 06:22:12;;;;;;;18.20;15.13;;;;;;;9.68;79.45;99316.17;1800127;79;25700;-57
2021/05/02 06:24:39;;;;;;;17.27;13.50;;;;;;;9.71;79.42;99306.64;1799957;79;25596;-56
2021/05/02 06:27:07;;;;;;;20.35;14.80;;;;;;;9.76;79.45;99309.15;1800160;79;25609;-56
2021/05/02 06:29:33;;;;;;;21.45;15.30;;;;;;;9.81;79.46;99296.02;1800097;79;25580;-57
2021/05/02 06:32:00;;;;;;;19.35;14.63;;;;;;;9.87;79.38;99286.59;1800155;79;25610;-57
2021/05/02 06:34:26;;;;;;;20.40;14.80;;;;;;;9.91;79.20;99264.58;1800251;79;25705;-58
2021/05/02 06:36:58;;;;;;;21.52;14.15;;;;;;;9.96;79.14;99259.52;1800102;79;25579;-56
2021/05/02 06:39:22;;;;;;;20.02;14.35;;;;;;;9.99;79.04;99255.59;1799333;79;26225;-56
2021/05/02 06:41:48;;;;;;;18.23;14.15;;;;;;;10.04;79.06;99255.95;1799703;79;26402;-56
2021/05/02 06:44:15;;;;;;;19.10;14.85;;;;;;;10.07;79.02;99245.28;1799462;79;26192;-56
2021/05/02 06:46:41;;;;;;;18.52;14.43;;;;;;;10.12;78.74;99243.52;1800349;79;26275;-63
2021/05/02 06:49:08;;;;;;;19.75;14.83;;;;;;;10.10;78.49;99231.11;1800206;79;25555;-62
2021/05/02 06:51:37;;;;;;;15.88;13.35;;;;;;;10.12;78.39;99233.48;1800241;79;25534;-62
2021/05/02 06:54:06;;;;;;;16.85;13.50;;;;;;;10.12;78.31;99224.60;1800468;79;25614;-62
2021/05/02 06:56:34;;;;;;;20.97;14.67;;;;;;;10.10;78.29;99227.06;1778554;79;25568;-55
2021/05/02 06:59:00;;;;;;;20.32;14.15;;;;;;;10.11;78.22;99212.98;1800313;79;26608;-55
2021/05/02 07:01:27;;;;;;;18.48;13.45;;;;;;;10.13;78.17;99205.36;1798970;79;25702;-56
2021/05/02 07:03:54;;;;;;;19.32;13.93;;;;;;;10.13;78.02;99191.84;1797691;79;25544;-56
2021/05/02 07:06:21;;;;;;;17.15;13.35;;;;;;;10.13;77.99;99176.17;1797786;79;25601;-56
2021/05/02 07:08:48;;;;;;;17.67;13.45;;;;;;;10.14;78.00;99163.69;1797751;79;25525;-56
2021/05/02 07:11:15;;;;;;;18.15;12.98;;;;;;;10.17;78.03;99154.14;1760300;79;25677;-56
2021/05/02 07:13:42;;;;;;;16.80;12.95;;;;;;;10.19;77.87;99147.83;1780240;80;25555;-56
2021/05/02 07:16:10;;;;;;;20.97;15.45;;;;;;;10.19;77.82;99153.23;1770451;80;25608;-56
2021/05/02 07:18:39;;;;;;;19.35;14.78;;;;;;;10.16;77.74;99153.33;1769972;81;25514;-55
2021/05/02 07:21:07;;;;;;;15.87;13.40;;;;;;;10.15;77.66;99153.12;1770302;79;25522;-56
2021/05/02 07:23:42;;;;;;;16.07;13.70;;;;;;;10.13;77.43;99143.21;1769953;81;25701;-56
2021/05/02 07:26:08;;;;;;;19.37;13.50;;;;;;;10.13;77.62;99129.70;1772598;79;25605;-57
2021/05/02 07:28:35;;;;;;;17.35;12.80;;;;;;;10.14;77.63;99116.40;1785721;79;25605;-56
2021/05/02 07:31:02;;;;;;;15.30;12.75;;;;;;;10.16;77.61;99112.02;1780647;79;25616;-56
2021/05/02 07:33:28;;;;;;;17.82;13.35;;;;;;;10.19;77.63;99116.19;1766088;79;25671;-56
2021/05/02 07:35:56;;;;;;;19.67;14.95;;;;;;;10.21;77.69;99104.47;1766091;81;25786;-56
2021/05/02 07:38:24;;;;;;;16.00;12.98;;;;;;;10.25;77.51;99093.23;1765941;81;25592;-56
2021/05/02 07:40:52;;;;;;;17.50;13.20;;;;;;;10.28;77.35;99089.06;1765855;81;25563;-56
2021/05/02 07:43:19;;;;;;;17.92;12.53;;;;;;;10.29;77.30;99081.97;1766024;81;25562;-55
2021/05/02 07:45:47;;;;;;;15.43;12.58;;;;;;;10.31;77.27;99078.16;1765978;81;25624;-56
2021/05/02 07:48:13;;;;;;;18.65;14.35;;;;;;;10.34;77.42;99076.95;1765842;81;25974;-56
2021/05/02 07:50:41;;;;;;;15.78;13.05;;;;;;;10.37;77.35;99067.36;1765962;81;25599;-56
2021/05/02 07:53:08;;;;;;;16.65;13.05;;;;;;;10.42;77.28;99063.08;1778216;78;25671;-56
2021/05/02 07:55:36;;;;;;;16.67;12.88;;;;;;;10.45;77.27;99050.25;1787923;78;25587;-56
2021/05/02 07:58:03;;;;;;;15.68;12.85;;;;;;;10.44;77.09;99041.36;1794435;79;25661;-56
2021/05/02 08:00:30;;;;;;;16.50;12.55;;;;;;;10.46;77.45;99031.56;1788948;79;25954;-57
2021/05/02 08:02:56;;;;;;;20.57;13.15;;;;;;;10.47;77.14;99026.36;1769878;79;25642;-57
2021/05/02 08:05:23;;;;;;;16.42;13.13;;;;;;;10.46;77.18;99029.63;1777551;80;25513;-56
2021/05/02 08:07:49;;;;;;;15.95;13.18;;;;;;;10.46;77.07;99030.20;1780601;79;25567;-56
2021/05/02 08:10:18;;;;;;;16.55;13.60;;;;;;;10.45;77.28;99024.56;1779748;80;25577;-56
2021/05/02 08:12:44;;;;;;;19.32;15.00;;;;;;;10.44;77.19;99021.66;1780261;79;25695;-56
2021/05/02 08:15:12;;;;;;;16.12;13.45;;;;;;;10.44;77.36;99013.55;1779956;80;25705;-57
2021/05/02 08:17:39;;;;;;;17.42;13.45;;;;;;;10.43;77.39;99001.14;1780487;79;25560;-56
2021/05/02 08:20:09;;;;;;;23.30;15.55;;;;;;;10.40;77.34;99002.63;1779912;79;25577;-56
2021/05/02 08:22:35;;;;;;;;;;;;;;;10.38;77.79;98991.91;1783661;80;25547;-56
2021/05/02 08:25:05;;;;;;;17.77;14.43;;;;;;;10.36;77.77;98986.84;1789712;79;25824;-56
2021/05/02 08:27:32;;;;;;;18.02;14.23;;;;;;;10.35;78.04;98987.98;1799818;79;26278;-56
2021/05/02 08:29:59;;;;;;;19.85;14.38;;;;;;;10.30;78.50;98970.62;1799972;79;25543;-56
2021/05/02 08:32:26;;;;;;;18.98;14.30;;;;;;;10.25;78.59;98962.74;1799951;79;25523;-56
2021/05/02 08:34:53;;;;;;;23.87;15.20;;;;;;;10.24;78.77;98957.09;1800152;79;25688;-56
2021/05/02 08:37:19;;;;;;;21.00;16.15;;;;;;;10.22;79.01;98951.25;1799816;79;26307;-57
2021/05/02 08:39:46;;;;;;;19.48;15.90;;;;;;;10.20;79.03;98952.13;1799767;79;25674;-57
2021/05/02 08:42:13;;;;;;;19.02;14.85;;;;;;;10.20;79.22;98952.13;1800173;79;25611;-56
2021/05/02 08:44:40;;;;;;;21.97;15.38;;;;;;;10.19;79.14;98950.00;1800019;79;25624;-56
2021/05/02 08:47:07;;;;;;;18.62;15.38;;;;;;;10.20;79.42;98949.43;1799788;79;25600;-56
2021/05/02 08:49:35;;;;;;;20.48;14.85;;;;;;;10.15;79.39;98926.69;1800045;79;25696;-56
2021/05/02 08:52:02;;;;;;;20.02;15.13;;;;;;;10.14;79.32;98929.19;1799743;79;25729;-56
2021/05/02 08:54:29;;;;;;;19.48;16.27;;;;;;;10.13;79.50;98926.25;1793324;79;25638;-56
2021/05/02 08:56:56;;;;;;;18.10;14.93;;;;;;;10.11;79.84;98914.42;1796785;79;25653;-57
2021/05/02 08:59:24;;;;;;;22.30;16.65;;;;;;;10.08;79.72;98907.02;1792509;80;25619;-57
2021/05/02 09:01:56;;;;;;;22.00;16.75;;;;;;;10.07;79.84;98899.46;1790980;79;25679;-57
2021/05/02 09:04:24;;;;;;;24.70;17.90;;;;;;;10.06;79.96;98883.05;1785255;78;25607;-57
2021/05/02 09:06:51;;;;;;;22.10;16.80;;;;;;;10.03;80.05;98872.91;1779230;79;25619;-57
2021/05/02 09:09:18;;;;;;;22.73;16.32;;;;;;;10.04;80.02;98870.98;1763444;80;26132;-58
2021/05/02 09:11:47;;;;;;;20.32;16.90;;;;;;;10.04;80.10;98856.91;1763111;81;25525;-57
2021/05/02 09:14:24;;;;;;;21.50;16.67;;;;;;;10.01;80.23;98841.41;1772684;79;25976;-57
2021/05/02 09:17:01;;;;;;;22.00;16.77;;;;;;;10.02;80.27;98852.42;1778542;80;25573;-58
2021/05/02 09:19:34;;;;;;;22.25;17.35;;;;;;;9.99;80.42;98843.64;1778311;80;25583;-57
2021/05/02 09:22:13;;;;;;;21.23;17.10;;;;;;;9.97;80.47;98841.84;1778606;79;25524;-57
2021/05/02 09:24:40;;;;;;;22.05;17.00;;;;;;;9.95;80.90;98827.89;1778464;80;25526;-58
2021/05/02 09:27:14;;;;;;;21.10;17.55;;;;;;;9.94;80.86;98839.04;1778297;80;25753;-58
2021/05/02 09:29:44;;;;;;;21.17;16.97;;;;;;;9.89;80.94;98885.42;1779237;80;26297;-58
2021/05/02 09:32:14;;;;;;;22.42;17.85;;;;;;;9.89;81.00;98889.47;1778630;79;25848;-58
2021/05/02 09:34:50;;;;;;;29.42;18.50;;;;;;;9.90;81.37;98882.14;1778270;80;25604;-59
2021/05/02 09:37:18;;;;;;;23.10;17.40;;;;;;;9.89;81.53;98877.86;1777905;80;25568;-58
2021/05/02 09:39:53;;;;;;;24.63;19.17;;;;;;;9.87;81.55;98860.64;1754410;80;26537;-60
2021/05/02 09:42:32;;;;;;;24.80;19.00;;;;;;;9.85;81.64;98860.77;1778922;79;25573;-60
2021/05/02 09:45:03;;;;;;;31.23;20.37;;;;;;;9.84;81.83;98863.23;1778545;80;25520;-60
2021/05/02 09:47:39;;;;;;;28.90;19.60;;;;;;;9.84;82.21;98850.54;1778376;80;25570;-60
2021/05/02 09:50:23;;;;;;;27.13;19.73;;;;;;;9.85;82.49;98841.87;1778219;80;25577;-59
2021/05/02 09:53:01;;;;;;;23.87;18.30;;;;;;;9.85;82.59;98814.28;1779050;80;26789;-58
2021/05/02 09:55:33;;;;;;;25.60;18.90;;;;;;;9.82;82.80;98808.21;1777748;80;25643;-58
2021/05/02 09:58:15;;;;;;;24.98;18.87;;;;;;;9.81;82.94;98808.58;1778554;80;26193;-59
2021/05/02 10:00:51;;;;;;;45.28;27.77;;;;;;;9.78;83.30;98796.53;1777985;79;26209;-56
2021/05/02 10:03:23;;;;;;;42.23;27.25;;;;;;;9.78;83.24;98801.15;1776021;79;26262;-58
2021/05/02 10:05:59;;;;;;;39.67;25.80;;;;;;;9.73;83.28;98797.53;1768283;80;25959;-58
2021/05/02 10:08:32;;;;;;;34.13;27.00;;;;;;;9.73;83.34;98796.76;1767119;81;25595;-58
2021/05/02 10:11:03;;;;;;;31.85;25.35;;;;;;;9.71;83.52;98780.89;1768555;81;25616;-58
2021/05/02 10:13:29;;;;;;;28.87;21.65;;;;;;;9.72;83.66;98767.63;1768546;81;25533;-59
2021/05/02 10:15:58;;;;;;;25.80;20.52;;;;;;;9.72;84.08;98743.87;1767568;81;25628;-59
2021/05/02 10:18:25;;;;;;;25.30;20.25;;;;;;;9.73;84.33;98722.51;1746937;81;28010;-59
2021/05/02 10:20:52;;;;;;;27.90;22.02;;;;;;;9.73;84.41;98704.95;1772818;79;26237;-58
2021/05/02 10:23:19;;;;;;;36.75;25.55;;;;;;;9.75;84.40;98724.87;1784539;78;26323;-58
2021/05/02 10:25:48;;;;;;;28.80;22.67;;;;;;;9.78;84.79;98724.19;1787327;78;26356;-58
2021/05/02 10:28:22;;;;;;;32.17;23.02;;;;;;;9.76;84.53;98706.98;1764383;79;25642;-58
2021/05/02 10:30:54;;;;;;;28.23;22.15;;;;;;;9.78;84.61;98700.67;1784295;78;25809;-59
2021/05/02 10:33:36;;;;;;;29.65;22.25;;;;;;;9.78;84.73;98697.97;1752221;80;25696;-59
2021/05/02 10:36:09;;;;;;;33.50;23.18;;;;;;;9.78;84.85;98696.62;1725121;82;25522;-60
2021/05/02 10:38:54;;;;;;;33.10;24.02;;;;;;;9.78;84.91;98664.22;1765617;79;25682;-60
2021/05/02 10:41:28;;;;;;;31.52;23.77;;;;;;;9.80;85.25;98649.80;1787044;78;25695;-61
2021/05/02 10:44:14;;;;;;;35.58;24.57;;;;;;;9.82;85.66;98649.45;1786611;78;25953;-61
2021/05/02 10:46:54;;;;;;;30.20;22.42;;;;;;;9.81;85.68;98654.08;1787019;78;26398;-61
2021/05/02 10:49:26;;;;;;;32.70;23.27;;;;;;;9.82;85.67;98649.45;1783312;78;26013;-62
2021/05/02 10:51:57;;;;;;;32.90;25.12;;;;;;;9.82;86.06;98650.23;1789731;78;25913;-60
2021/05/02 10:54:42;;;;;;;31.25;24.35;;;;;;;9.83;86.16;98665.32;1799277;79;25565;-61
2021/05/02 10:57:36;;;;;;;32.67;23.62;;;;;;;9.87;86.02;98670.25;1809600;78;25883;-62
2021/05/02 11:00:10;;;;;;;34.75;26.02;;;;;;;9.90;86.11;98683.64;1820697;78;25699;-62
2021/05/02 11:02:45;;;;;;;41.53;26.70;;;;;;;9.92;86.42;98654.37;1794686;78;26269;-63
2021/05/02 11:05:20;;;;;;;31.75;24.90;;;;;;;9.96;86.49;98667.97;1807393;79;25614;-61
2021/05/02 11:07:49;;;;;;;35.38;26.97;;;;;;;9.99;86.52;98661.88;1791538;79;26129;-62
2021/05/02 11:10:18;;;;;;;43.98;31.80;;;;;;;10.03;86.84;98650.05;1764800;79;26287;-69
2021/05/02 11:12:46;;;;;;;38.98;29.05;;;;;;;10.08;86.98;98652.50;1807052;78;26231;-71
2021/05/02 11:15:31;;;;;;;35.78;26.02;;;;;;;10.14;87.23;98633.34;1802355;79;25520;-69
2021/05/02 11:17:58;;;;;;;40.88;29.05;;;;;;;10.19;87.40;98619.58;1791706;79;25556;-69
2021/05/02 11:20:50;;;;;;;38.35;27.27;;;;;;;10.23;87.57;98604.23;1771890;79;25634;-68
2021/05/02 11:23:21;;;;;;;38.10;27.25;;;;;;;10.26;87.35;98629.21;1789783;78;25781;-70
2021/05/02 11:26:02;;;;;;;37.40;27.98;;;;;;;10.26;87.31;98627.28;1787610;79;25627;-71
2021/05/02 11:28:56;;;;;;;36.35;27.48;;;;;;;10.30;87.21;98628.75;1796682;79;25573;-70
2021/05/02 11:31:13;;;;;;;36.80;27.13;;;;;;;10.32;87.18;98612.20;1796920;79;25796;-72
2021/05/02 11:33:39;;;;;;;40.92;29.27;;;;;;;10.35;87.20;98605.55;1796910;79;25605;-71
2021/05/02 11:36:07;;;;;;;46.05;30.20;;;;;;;10.39;87.25;98609.69;1796865;79;25793;-73
2021/05/02 11:38:39;;;;;;;47.25;34.53;;;;;;;10.43;87.35;98599.74;1785283;79;25557;-72
2021/05/02 11:41:09;;;;;;;46.48;34.05;;;;;;;10.47;87.36;98595.19;1779407;78;25771;-71
2021/05/02 11:43:38;;;;;;;41.08;30.45;;;;;;;10.50;87.45;98606.67;1796805;79;25626;-71
2021/05/02 11:46:17;;;;;;;42.93;31.73;;;;;;;10.53;87.41;98610.03;1796982;79;25603;-71
2021/05/02 11:48:45;;;;;;;46.58;33.73;;;;;;;10.55;87.44;98596.94;1809152;79;25703;-70
2021/05/02 11:51:26;;;;;;;44.30;33.15;;;;;;;10.58;87.54;98575.97;1809824;79;25654;-71
2021/05/02 11:53:55;;;;;;;43.55;32.40;;;;;;;10.62;87.76;98574.16;1809797;79;26233;-73
2021/05/02 11:56:30;;;;;;;46.63;35.45;;;;;;;10.66;87.89;98560.71;1810041;79;25878;-71
2021/05/02 11:59:08;;;;;;;44.38;33.38;;;;;;;10.70;87.89;98562.14;1777598;80;25682;-73
2021/05/02 12:01:43;;;;;;;44.27;32.40;;;;;;;10.76;87.96;98557.47;1768835;80;25761;-71
2021/05/02 12:04:17;;;;;;;48.85;34.78;;;;;;;10.82;88.15;98550.63;1769826;80;25653;-73
2021/05/02 12:06:45;;;;;;;51.48;36.17;;;;;;;10.90;88.48;98537.28;1773282;80;25603;-73
2021/05/02 12:09:18;;;;;;;47.27;34.45;;;;;;;11.02;89.07;98531.73;1751584;79;25654;-73
2021/05/02 12:11:57;;;;;;;43.02;34.00;;;;;;;11.11;89.36;98521.48;1757587;80;25720;-72
2021/05/02 12:14:28;;;;;;;50.12;35.52;;;;;;;11.18;89.20;98531.09;1792376;80;26294;-74
2021/05/02 12:16:59;;;;;;;47.40;34.98;;;;;;;11.22;89.12;98527.13;1791929;80;25611;-75
2021/05/02 12:19:28;;;;;;;44.38;33.55;;;;;;;11.25;88.88;98518.86;1788277;79;25628;-73
2021/05/02 12:21:56;;;;;;;43.15;31.93;;;;;;;11.28;88.66;98503.27;1780968;79;26337;-75
2021/05/02 12:24:31;;;;;;;47.90;34.60;;;;;;;11.33;88.93;98494.27;1794867;78;26398;-75
2021/05/02 12:27:03;;;;;;;51.98;35.13;;;;;;;11.42;89.15;98486.50;1775262;79;25978;-75
2021/05/02 12:29:36;;;;;;;46.30;34.48;;;;;;;11.49;89.30;98471.19;1798731;79;25646;-73
2021/05/02 12:32:16;;;;;;;46.58;33.40;;;;;;;11.56;89.35;98467.80;1798841;79;25578;-71
2021/05/02 12:34:50;;;;;;;39.65;30.68;;;;;;;11.59;89.47;98457.06;1799157;79;25610;-74
2021/05/02 12:37:20;;;;;;;45.85;33.75;;;;;;;11.64;89.49;98445.70;1791706;79;25612;-74
2021/05/02 12:39:51;;;;;;;43.42;29.90;;;;;;;11.67;89.40;98440.34;1773234;80;26782;-74
2021/05/02 12:42:35;;;;;;;41.92;31.10;;;;;;;11.71;90.03;98429.57;1774704;80;25583;-74
2021/05/02 12:45:06;;;;;;;39.70;30.77;;;;;;;11.74;89.94;98420.73;1779787;79;25768;-73
2021/05/02 12:47:46;;;;;;;43.25;31.90;;;;;;;11.79;89.99;98431.26;1772499;79;25637;-75
2021/05/02 12:50:14;;;;;;;41.90;30.72;;;;;;;11.83;89.91;98430.73;1774186;80;25649;-77
2021/05/02 12:52:44;;;;;;;37.38;28.65;;;;;;;11.88;90.16;98439.13;1779822;80;25676;-75
2021/05/02 12:55:28;;;;;;;35.58;28.23;;;;;;;11.91;90.69;98430.31;1787674;79;25568;-73
2021/05/02 12:58:07;;;;;;;36.05;27.93;;;;;;;11.96;90.96;98423.23;1779135;80;25571;-76
2021/05/02 13:03:45;;;;;;;34.40;27.30;;;;;;;12.15;90.81;98436.69;1880073;76;34668;-69
2021/05/02 13:06:14;;;;;;;36.60;28.00;;;;;;;12.12;90.75;98429.86;1855586;77;25570;-75
2021/05/02 13:09:05;;;;;;;37.23;29.07;;;;;;;12.16;91.04;98432.06;1824997;77;25747;-73
2021/05/02 13:11:40;;;;;;;34.80;27.70;;;;;;;12.19;90.92;98431.89;1855791;77;25614;-73
2021/05/02 13:14:21;;;;;;;34.33;26.10;;;;;;;12.22;91.16;98415.67;1855538;77;25626;-72
2021/05/02 13:16:54;;;;;;;36.03;27.58;;;;;;;12.24;91.46;98412.05;1855626;77;25640;-76
2021/05/02 13:19:34;;;;;;;41.05;28.00;;;;;;;12.28;91.07;98416.16;1855516;77;25647;-72
2021/05/02 13:22:24;;;;;;;35.95;28.42;;;;;;;12.31;91.38;98417.56;1855717;77;25820;-78
2021/05/02 13:25:10;;;;;;;39.38;28.92;;;;;;;12.33;91.31;98416.63;1855474;77;25586;-73
2021/05/02 13:27:54;;;;;;;37.63;28.80;;;;;;;12.39;91.75;98413.59;1855475;77;25572;-69
2021/05/02 13:30:33;;;;;;;34.48;27.80;;;;;;;12.46;91.99;98408.26;1848792;77;25676;-82
2021/05/02 13:33:14;;;;;;;36.48;29.45;;;;;;;12.52;93.12;98420.36;1850450;76;26348;-77
2021/05/02 13:35:45;;;;;;;33.90;27.22;;;;;;;12.56;93.03;98413.63;1856523;76;25861;-69
2021/05/02 13:38:19;;;;;;;41.58;31.97;;;;;;;12.60;92.83;98415.80;1858124;76;25655;-67
2021/05/02 13:40:46;;;;;;;41.55;31.87;;;;;;;12.68;93.02;98418.81;1843625;75;25683;-72
2021/05/02 13:43:15;;;;;;;36.83;29.95;;;;;;;12.76;93.15;98410.97;1836894;77;25635;-70
2021/05/02 13:45:42;;;;;;;37.13;28.05;;;;;;;12.81;93.05;98413.36;1822125;78;25667;-72
2021/05/02 13:48:09;;;;;;;36.23;27.70;;;;;;;12.82;94.05;98433.13;1822215;77;25785;-72
2021/05/02 13:50:36;;;;;;;30.50;24.52;;;;;;;12.80;92.87;98413.14;1821389;78;25770;-71
2021/05/02 13:53:03;;;;;;;29.72;24.82;;;;;;;12.80;93.01;98415.86;1828076;76;26456;-73
2021/05/02 13:55:30;;;;;;;31.33;24.43;;;;;;;12.78;92.89;98426.30;1839993;77;25707;-74
2021/05/02 13:57:56;;;;;;;30.37;24.18;;;;;;;12.77;92.58;98430.73;1839790;77;25865;-62
2021/05/02 14:00:24;;;;;;;28.32;23.00;;;;;;;12.75;92.76;98427.61;1823438;78;28036;-75
2021/05/02 14:02:51;;;;;;;27.65;20.10;;;;;;;12.76;92.16;98433.26;1824184;77;25582;-74
2021/05/02 14:05:18;;;;;;;21.80;17.30;;;;;;;12.73;92.03;98432.05;1817578;78;25761;-72
2021/05/02 14:07:46;;;;;;;18.87;14.90;;;;;;;12.68;91.03;98437.80;1824655;77;25647;-72
2021/05/02 14:10:14;;;;;;;15.45;12.68;;;;;;;12.62;89.91;98426.50;1824510;77;25678;-71
2021/05/02 14:12:42;;;;;;;15.40;13.72;;;;;;;12.58;89.25;98426.23;1824628;77;27291;-70
2021/05/02 14:15:09;;;;;;;16.50;12.37;;;;;;;12.53;89.05;98468.01;1826430;76;25709;-71
2021/05/02 14:17:36;;;;;;;17.02;13.30;;;;;;;12.52;88.72;98447.48;1859593;76;25649;-69
2021/05/02 14:20:04;;;;;;;15.30;12.82;;;;;;;12.42;88.31;98450.83;1852308;76;25674;-72
2021/05/02 14:22:31;;;;;;;15.10;13.03;;;;;;;12.32;87.60;98459.00;1820347;78;25693;-71
2021/05/02 14:24:58;;;;;;;14.05;12.65;;;;;;;12.25;87.39;98461.03;1824445;77;26759;-72
2021/05/02 14:27:24;;;;;;;12.93;11.40;;;;;;;12.18;87.05;98466.94;1823991;78;26323;-73
2021/05/02 14:29:51;;;;;;;14.05;11.75;;;;;;;12.10;86.45;98461.97;1824451;78;25611;-73
2021/05/02 14:32:20;;;;;;;12.07;10.78;;;;;;;12.02;86.39;98480.60;1831825;77;26172;-69
2021/05/02 14:34:46;;;;;;;11.00;9.88;;;;;;;11.89;85.77;98472.64;1858088;77;25562;-72
2021/05/02 14:37:13;;;;;;;10.63;9.05;;;;;;;11.81;85.44;98468.24;1858178;77;25733;-71
2021/05/02 14:39:40;;;;;;;8.85;7.95;;;;;;;11.69;84.89;98479.27;1857761;77;25731;-67
2021/05/02 14:42:09;;;;;;;9.63;8.10;;;;;;;11.58;84.86;98475.02;1857937;77;25591;-64
2021/05/02 14:44:36;;;;;;;8.40;7.30;;;;;;;11.49;84.78;98482.57;1858140;77;25564;-71
2021/05/02 14:47:03;;;;;;;7.80;7.00;;;;;;;11.39;84.46;98481.22;1846084;77;25653;-71
2021/05/02 14:49:30;;;;;;;10.25;7.33;;;;;;;11.32;84.27;98493.27;1858161;77;26641;-69
2021/05/02 14:51:56;;;;;;;7.05;6.40;;;;;;;11.25;84.54;98484.45;1843616;76;26269;-70
2021/05/02 14:54:22;;;;;;;6.83;6.10;;;;;;;11.18;82.87;98496.49;1838180;76;25567;-70
2021/05/02 14:56:49;;;;;;;8.75;6.15;;;;;;;11.10;82.85;98494.23;1794998;77;25565;-70
2021/05/02 14:59:16;;;;;;;7.33;5.90;;;;;;;11.05;83.30;98477.47;1812840;79;25796;-69
2021/05/02 15:01:43;;;;;;;5.90;5.30;;;;;;;10.99;83.21;98481.05;1812050;79;25700;-70
2021/05/02 15:04:10;;;;;;;8.48;5.65;;;;;;;10.92;83.09;98474.91;1813975;79;25761;-68
2021/05/02 15:06:37;;;;;;;9.08;5.87;;;;;;;10.87;83.48;98487.37;1814539;79;25678;-69
2021/05/02 15:09:04;;;;;;;5.28;4.75;;;;;;;10.80;83.44;98485.88;1806620;79;25579;-69
2021/05/02 15:11:31;;;;;;;6.67;5.70;;;;;;;10.74;83.24;98488.05;1789971;80;25739;-72
2021/05/02 15:13:57;;;;;;;8.20;6.17;;;;;;;10.69;83.74;98473.45;1804159;79;25830;-68
2021/05/02 15:16:24;;;;;;;7.58;6.67;;;;;;;10.61;83.28;98482.00;1803935;79;25651;-67
2021/05/02 15:18:51;;;;;;;9.03;6.58;;;;;;;10.55;83.24;98483.97;1804225;79;26296;-65
2021/05/02 15:21:18;;;;;;;7.58;6.00;;;;;;;10.48;83.48;98529.20;1804058;79;25601;-68
2021/05/02 15:23:44;;;;;;;6.95;6.12;;;;;;;10.42;82.72;98496.26;1805904;79;25682;-68
2021/05/02 15:26:11;;;;;;;11.18;5.55;;;;;;;10.37;82.99;98478.95;1804190;79;25782;-67
2021/05/02 15:28:39;;;;;;;7.95;5.17;;;;;;;10.32;82.96;98481.94;1804313;79;25725;-67
2021/05/02 15:31:05;;;;;;;6.28;4.83;;;;;;;10.27;82.43;98483.52;1798289;79;25643;-67
2021/05/02 15:33:32;;;;;;;5.37;4.78;;;;;;;10.23;82.79;98480.73;1788614;79;25699;-66
2021/05/02 15:35:59;;;;;;;5.65;5.00;;;;;;;10.19;82.65;98477.73;1757623;81;25659;-68
2021/05/02 15:38:26;;;;;;;5.78;4.62;;;;;;;10.16;82.39;98469.74;1811265;78;25806;-68
2021/05/02 15:40:52;;;;;;;6.90;4.78;;;;;;;10.14;82.53;98473.94;1817450;77;25689;-66
2021/05/02 15:43:19;;;;;;;5.53;4.30;;;;;;;10.10;82.71;98470.59;1817524;78;25635;-66
2021/05/02 15:45:46;;;;;;;7.03;4.22;;;;;;;10.07;82.33;98461.05;1817389;78;25766;-66
2021/05/02 15:48:14;;;;;;;4.92;3.98;;;;;;;10.06;82.46;98463.52;1817656;78;25744;-66
2021/05/02 15:50:41;;;;;;;5.45;3.75;;;;;;;10.04;82.71;98459.81;1784356;78;25785;-65
2021/05/02 15:53:09;;;;;;;7.10;5.17;;;;;;;10.02;82.94;98480.22;1789170;78;25682;-66
2021/05/02 15:55:37;;;;;;;5.50;4.55;;;;;;;10.01;82.56;98455.14;1816981;78;25726;-63
2021/05/02 15:58:03;;;;;;;5.90;4.12;;;;;;;9.98;82.51;98463.94;1817347;78;25630;-64
2021/05/02 16:00:31;;;;;;;7.33;5.53;;;;;;;9.97;82.54;98455.60;1817151;78;25599;-67
2021/05/02 16:02:58;;;;;;;5.65;5.00;;;;;;;9.97;82.69;98472.38;1806869;78;25740;-67
2021/05/02 16:05:26;;;;;;;4.92;3.72;;;;;;;9.96;82.74;98464.86;1794550;79;25776;-67
2021/05/02 16:07:53;;;;;;;3.92;3.55;;;;;;;9.94;82.59;98467.09;1786556;78;25877;-67
2021/05/02 16:10:20;;;;;;;3.37;3.00;;;;;;;9.91;82.58;98469.17;1793639;78;25621;-67
2021/05/02 16:12:46;;;;;;;7.22;3.42;;;;;;;9.88;82.36;98476.03;1783549;79;25588;-66
2021/05/02 16:15:13;;;;;;;3.90;3.42;;;;;;;9.84;82.24;98489.22;1746153;79;25750;-67
2021/05/02 16:17:39;;;;;;;6.10;3.20;;;;;;;9.81;81.76;98487.24;1758484;79;25642;-62
2021/05/02 16:20:09;;;;;;;4.20;3.02;;;;;;;9.73;81.74;98477.59;1777978;79;25660;-61
2021/05/02 16:22:37;;;;;;;4.35;3.20;;;;;;;9.67;81.49;98478.19;1774703;79;25628;-61
2021/05/02 16:25:06;;;;;;;4.00;3.02;;;;;;;9.61;81.43;98486.34;1780751;79;25479;-62
2021/05/02 16:27:33;;;;;;;4.12;2.98;;;;;;;9.53;81.62;98488.06;1762560;79;25724;-61
2021/05/02 16:30:00;;;;;;;4.05;2.80;;;;;;;9.46;81.75;98482.48;1780184;79;25746;-62
2021/05/02 16:32:27;;;;;;;3.75;3.10;;;;;;;9.38;82.19;98478.82;1778906;79;25847;-61
2021/05/02 16:34:59;;;;;;;4.53;3.20;;;;;;;9.30;82.48;98478.41;1778990;79;25717;-62
2021/05/02 16:37:27;;;;;;;5.12;3.12;;;;;;;9.21;82.98;98500.14;1777126;79;25709;-60
2021/05/02 16:39:54;;;;;;;3.27;2.72;;;;;;;9.15;82.77;98492.06;1766821;79;28059;-60
2021/05/02 16:42:25;;;;;;;5.47;2.92;;;;;;;9.10;83.10;98495.78;1780131;79;26339;-61
2021/05/02 16:44:53;;;;;;;3.92;2.72;;;;;;;9.05;83.15;98501.98;1779636;78;26282;-60
2021/05/02 16:47:21;;;;;;;3.60;3.10;;;;;;;9.02;83.59;98510.75;1779219;79;26250;-61
2021/05/02 16:49:48;;;;;;;4.65;3.25;;;;;;;8.95;83.91;98536.38;1779780;79;25543;-61
2021/05/02 16:52:17;;;;;;;3.95;3.58;;;;;;;8.87;83.34;98512.25;1776672;79;26273;-60
2021/05/02 16:54:46;;;;;;;4.40;3.55;;;;;;;8.75;83.64;98515.75;1778297;79;26365;-58
2021/05/02 16:57:13;;;;;;;4.35;3.95;;;;;;;8.64;83.63;98519.48;1780131;79;25687;-59
2021/05/02 16:59:40;;;;;;;5.10;4.08;;;;;;;8.55;83.68;98540.39;1772398;79;25738;-60
2021/05/02 17:02:08;;;;;;;6.03;4.50;;;;;;;8.47;84.28;98527.81;1771167;79;25606;-60
2021/05/02 17:04:36;;;;;;;4.80;4.35;;;;;;;8.37;85.18;98537.09;1733028;81;25708;-60
2021/05/02 17:07:04;;;;;;;4.55;4.12;;;;;;;8.29;85.19;98540.14;1762610;81;25685;-59
2021/05/02 17:09:30;;;;;;;6.58;4.67;;;;;;;8.18;85.19;98539.00;1733009;81;25708;-64
2021/05/02 17:11:57;;;;;;;5.28;4.47;;;;;;;8.12;85.08;98543.83;1763191;81;25559;-64
2021/05/02 17:14:24;;;;;;;4.95;4.40;;;;;;;8.04;85.90;98536.06;1762826;81;25610;-63
2021/05/02 17:16:50;;;;;;;3.58;3.02;;;;;;;7.97;85.84;98564.10;1763254;81;25764;-65
2021/05/02 17:19:17;;;;;;;6.20;3.20;;;;;;;7.91;85.81;98579.45;1763132;81;25724;-67
2021/05/02 17:21:44;;;;;;;3.80;3.40;;;;;;;7.84;85.47;98564.62;1773391;78;26236;-64
2021/05/02 17:24:11;;;;;;;3.60;2.83;;;;;;;7.81;85.73;98563.16;1787513;78;25534;-64
2021/05/02 17:26:38;;;;;;;3.10;2.67;;;;;;;7.77;86.54;98587.83;1792559;79;26277;-63
2021/05/02 17:29:05;;;;;;;3.92;2.25;;;;;;;7.72;85.95;98567.28;1762805;81;25819;-64
2021/05/02 17:31:32;;;;;;;3.58;1.90;;;;;;;7.67;85.76;98578.25;1763181;81;25735;-63
2021/05/02 17:33:59;;;;;;;3.00;2.67;;;;;;;7.61;86.44;98584.95;1758392;79;25662;-65
2021/05/02 17:36:26;;;;;;;2.55;2.30;;;;;;;7.61;85.98;98595.17;1771037;79;25660;-65
2021/05/02 17:38:53;;;;;;;3.08;2.33;;;;;;;7.58;86.63;98597.17;1773985;78;25590;-66